WetterOnline ( https://www.wetteronline.de )

Wetter aktuell Nuthetal

Aktuelles Wetter: Potsdam (100m)

6-stündlich | Neueste Meldungen
Ortszeit Temperatur Wetter
Di, 31.01. 19:00 5.2° C bedeckt
Di, 31.01. 13:00 5.0° C bedeckt
Di, 31.01. 7:00 3.2° C Sprühregen
Di, 31.01. 1:00 3.0° C leicht bewölkt
Mo, 30.01. 19:00 4.0° C Regen
Mo, 30.01. 13:00 6.1° C Sprühregen
Mo, 30.01. 7:00 1.5° C Sprühregen
Mo, 30.01. 1:00 1.0° C bedeckt
Ortszeit Temperatur Wetter
Di, 31.01. 21:00 5.8° C bewölkt
Di, 31.01. 20:50 5.8° C bewölkt
Di, 31.01. 20:40 5.7° C bewölkt
Di, 31.01. 20:30 6.0° C bewölkt
Di, 31.01. 20:20 6.0° C bewölkt
Di, 31.01. 20:10 5.9° C bedeckt
Di, 31.01. 20:00 5.8° C bewölkt
Di, 31.01. 19:30 5.4° C bewölkt
Di, 31.01. 19:00 5.2° C bedeckt
Di, 31.01. 18:30 5.0° C Sprühregen
Di, 31.01. 18:00 5.0° C leichter Regen
Ortszeit Relative Feuchte Sichtweite
Di, 31.01. 19:00 93% 27 km
Di, 31.01. 13:00 83% 30 km
Di, 31.01. 7:00 84% 27 km
Di, 31.01. 1:00 77% 30 km
Mo, 30.01. 19:00 95% 25 km
Mo, 30.01. 13:00 75% 30 km
Mo, 30.01. 7:00 94% 6 km
Mo, 30.01. 1:00 80% 30 km
Ortszeit Relative Feuchte Sichtweite
Di, 31.01. 21:00 84% 40 km
Di, 31.01. 20:50 84% -
Di, 31.01. 20:40 84% -
Di, 31.01. 20:30 83% 45 km
Di, 31.01. 20:20 83% -
Di, 31.01. 20:10 88% -
Di, 31.01. 20:00 89% 35 km
Di, 31.01. 19:30 92% 35 km
Di, 31.01. 19:00 93% 27 km
Di, 31.01. 18:30 95% 20 km
Di, 31.01. 18:00 95% 23 km
Ortszeit Niederschlagsmenge Niederschlagsart
Di, 31.01. 19:00 2 l/m2 in 12 Std. Regen
Di, 31.01. 13:00 0.3 l/m2 in 6 Std. Regen
Di, 31.01. 7:00 0.1 l/m2 in 12 Std. Sprühregen
Di, 31.01. 1:00 0.1 l/m2 in 6 Std. Regen
Mo, 30.01. 19:00 3 l/m2 in 12 Std. Regen
Mo, 30.01. 13:00 0.6 l/m2 in 6 Std. Regen
Mo, 30.01. 7:00 0.2 l/m2 in 12 Std. Schnee, Regen
Mo, 30.01. 1:00 0.1 l/m2 in 6 Std. Schnee, Sprühregen
Ortszeit Niederschlagsmenge Niederschlagsart
Di, 31.01. 21:00 0.0 l/m2 in 1 Std. -
Di, 31.01. 20:50 keine Meldung -
Di, 31.01. 20:40 keine Meldung -
Di, 31.01. 20:30 0.0 l/m2 in 30 Min -
Di, 31.01. 20:20 keine Meldung -
Di, 31.01. 20:10 keine Meldung -
Di, 31.01. 20:00 0.0 l/m2 in 1 Std. -
Di, 31.01. 19:30 0.0 l/m2 in 30 Min -
Di, 31.01. 19:00 0.1 l/m2 in 1 Std. Regen
Di, 31.01. 18:30 0.1 l/m2 in 30 Min -
Di, 31.01. 18:00 0.1 l/m2 in 1 Std. Regen
Ortszeit Stärke Spitze Richtung
km/h Bft. km/h Grad Sektor
Di, 31.01. 19:00 30 5 57 250° W
Di, 31.01. 13:00 25 4 47 230° SW
Di, 31.01. 7:00 29 5 54 270° W
Di, 31.01. 1:00 30 5 74 280° W
Mo, 30.01. 19:00 30 5 85 290° W
Mo, 30.01. 13:00 31 5 61 260° W
Mo, 30.01. 7:00 26 4 54 230° SW
Mo, 30.01. 1:00 25 4 47 230° SW
Ortszeit Stärke Spitze Richtung
km/h Bft. km/h Grad Sektor
Di, 31.01. 21:00 37 5 63 270° W
Di, 31.01. 20:50 37 5 - 270° W
Di, 31.01. 20:40 37 5 - 270° W
Di, 31.01. 20:30 36 5 65 270° W
Di, 31.01. 20:20 36 5 - 270° W
Di, 31.01. 20:10 35 5 - 260° W
Di, 31.01. 20:00 29 5 58 260° W
Di, 31.01. 19:30 28 4 43 240° SW
Di, 31.01. 19:00 30 5 48 250° W
Di, 31.01. 18:30 28 4 46 250° W
Di, 31.01. 18:00 29 5 50 250° W
Ortszeit Untergrenze Bedeckung Gattung
total tief tief mittel hoch
Di, 31.01. 19:00 300 m 8/8 8/8 - - -
Di, 31.01. 13:00 570 m 8/8 8/8 - - -
Di, 31.01. 7:00 630 m 8/8 8/8 - - -
Di, 31.01. 1:00 960 m 2/8 1/8 - - -
Mo, 30.01. 19:00 210 m 8/8 8/8 - - -
Mo, 30.01. 13:00 690 m 8/8 8/8 - - -
Mo, 30.01. 7:00 300 m 8/8 8/8 - - -
Mo, 30.01. 1:00 570 m 8/8 8/8 - - -
Ortszeit Bedeckungsgrad in Achtel und Wolkenuntergrenze
Di, 31.01. 21:00 5(660m) 7(870m) 7(1080m)
Di, 31.01. 20:50 5(660m) 7(870m) 7(1080m)
Di, 31.01. 20:40 7
Di, 31.01. 20:30 3(510m) 7(810m) 7(990m)
Di, 31.01. 20:20 3(510m) 7(810m) 7(990m)
Di, 31.01. 20:10 8
Di, 31.01. 20:00 6(450m) 7(600m) 7(750m)
Di, 31.01. 19:30 4(480m) 7(840m) 7(1110m)
Di, 31.01. 19:00 2(300m) 7(870m) 8(2100m)
Di, 31.01. 18:30 7(300m) 8(540m)
Di, 31.01. 18:00 8(270m)
Ortszeit Luftdruck NN (hPa) Tendenz (hPa in 3 Std.)
Di, 31.01. 19:00 1011 - 0,8
Di, 31.01. 13:00 1014 - 2,8
Di, 31.01. 7:00 1017 + 1,1
Di, 31.01. 1:00 1014 + 2,2
Mo, 30.01. 19:00 1009 + 2,9
Mo, 30.01. 13:00 1005 - 0,8
Mo, 30.01. 7:00 1007 - 2,9
Mo, 30.01. 1:00 1014 - 3,3
Ortszeit Luftdruck NN (hPa) Tendenz (hPa in 3 Std.)
Di, 31.01. 21:00 1010 - 1,3
Di, 31.01. 20:50 1010 keine Meldung
Di, 31.01. 20:40 1010 keine Meldung
Di, 31.01. 20:30 1010 - 1,3
Di, 31.01. 20:20 1010 keine Meldung
Di, 31.01. 20:10 1010 keine Meldung
Di, 31.01. 20:00 1010 - 1,4
Di, 31.01. 19:30 1010 - 1,2
Di, 31.01. 19:00 1011 - 0,8
Di, 31.01. 18:30 1011 - 0,7
Di, 31.01. 18:00 1012 - 0,6
Ortszeit Schneehöhe (cm)
Di, 31.01. 19:00 0
Di, 31.01. 13:00 0
Di, 31.01. 7:00 0
Di, 31.01. 1:00 0
Mo, 30.01. 19:00 0
Mo, 30.01. 13:00 0
Mo, 30.01. 7:00 0
Mo, 30.01. 1:00 0
Ortszeit Schneehöhe (cm)
Di, 31.01. 21:00 0
Di, 31.01. 20:50 0
Di, 31.01. 20:40 0
Di, 31.01. 20:30 0
Di, 31.01. 20:20 0
Di, 31.01. 20:10 0
Di, 31.01. 20:00 0
Di, 31.01. 19:30 0
Di, 31.01. 19:00 0
Di, 31.01. 18:30 0
Di, 31.01. 18:00 0
Link zu dieser Seite / Seite empfehlen

Das Wetter in ...